createdAt,value
2022-11-08T00:01:11.996Z,52.15
2022-11-08T00:03:39.156Z,51.42
2022-11-08T00:06:24.360Z,56.30
2022-11-08T00:09:09.822Z,55.47
2022-11-08T00:11:57.294Z,52.15
2022-11-08T00:14:24.333Z,51.53
2022-11-08T00:16:51.376Z,57.42
2022-11-08T00:19:18.541Z,57.20
2022-11-08T00:22:15.399Z,60.38
2022-11-08T00:24:42.681Z,49.67
2022-11-08T00:27:13.417Z,55.65
2022-11-08T00:29:40.735Z,53.92
2022-11-08T00:36:33.907Z,35.15
2022-11-08T00:43:13.357Z,34.55
2022-11-08T00:45:51.095Z,45.25
2022-11-08T00:48:43.200Z,43.05
2022-11-08T00:51:12.983Z,45.63
2022-11-08T00:53:40.298Z,48.70
2022-11-08T00:56:10.556Z,46.13
2022-11-08T00:58:37.714Z,44.75
2022-11-08T01:01:18.281Z,45.38
2022-11-08T01:03:45.850Z,47.45
2022-11-08T01:06:14.624Z,47.65
2022-11-08T01:08:41.744Z,48.13
2022-11-08T01:11:18.446Z,46.33
2022-11-08T01:13:50.367Z,48.10
2022-11-08T01:16:21.994Z,43.13
2022-11-08T01:19:07.778Z,45.97
2022-11-08T01:21:37.549Z,42.28
2022-11-08T01:24:04.818Z,41.35
2022-11-08T01:26:31.733Z,43.40
2022-11-08T01:28:59.013Z,48.72
2022-11-08T01:31:30.162Z,48.50
2022-11-08T01:33:58.506Z,45.63
2022-11-08T01:36:27.151Z,40.83
2022-11-08T01:38:54.993Z,45.53
2022-11-08T01:41:24.002Z,46.20
2022-11-08T01:44:00.665Z,45.17
2022-11-08T01:46:40.785Z,42.15
2022-11-08T01:49:07.991Z,40.00
2022-11-08T01:52:52.084Z,38.90
2022-11-08T01:55:30.635Z,31.85
2022-11-08T01:58:06.274Z,34.78
2022-11-08T02:00:37.791Z,38.58
2022-11-08T02:03:07.393Z,42.65
2022-11-08T02:05:34.889Z,41.15
2022-11-08T02:08:07.634Z,38.15
2022-11-08T02:10:44.092Z,39.13
2022-11-08T02:13:26.728Z,39.42
2022-11-08T02:15:54.065Z,36.72
2022-11-08T02:18:24.491Z,37.72
2022-11-08T02:21:24.622Z,37.53
2022-11-08T02:24:02.696Z,29.15
2022-11-08T02:26:34.319Z,31.95
2022-11-08T02:29:32.207Z,33.75
2022-11-08T02:32:02.051Z,30.25
2022-11-08T02:34:49.825Z,31.10
2022-11-08T02:37:20.080Z,28.83
2022-11-08T02:39:47.991Z,32.03
2022-11-08T02:42:18.624Z,31.88
2022-11-08T02:44:46.747Z,32.90
2022-11-08T02:47:14.595Z,36.78
2022-11-08T02:49:41.607Z,34.60
2022-11-08T02:52:09.559Z,33.10
2022-11-08T02:54:36.675Z,36.33
2022-11-08T02:57:03.799Z,33.65
2022-11-08T02:59:30.723Z,36.47
2022-11-08T03:01:58.604Z,34.80
2022-11-08T03:04:26.739Z,35.95
2022-11-08T03:06:53.736Z,35.60
2022-11-08T03:09:20.688Z,35.33
2022-11-08T03:11:47.658Z,33.85
2022-11-08T03:14:14.577Z,33.47
2022-11-08T03:16:41.462Z,34.00
2022-11-08T03:19:08.361Z,35.20
2022-11-08T03:21:36.680Z,32.20
2022-11-08T03:24:07.202Z,33.45
2022-11-08T03:27:19.706Z,36.05
2022-11-08T03:29:47.245Z,29.27
2022-11-08T03:32:15.290Z,31.83
2022-11-08T03:34:42.607Z,33.03
2022-11-08T03:37:10.523Z,35.70
2022-11-08T03:39:37.587Z,35.33
2022-11-08T03:42:06.367Z,35.38
2022-11-08T03:44:33.288Z,34.50
2022-11-08T03:47:00.815Z,31.63
2022-11-08T03:49:27.782Z,31.30
2022-11-08T03:51:56.883Z,30.30
2022-11-08T03:54:23.730Z,29.88
2022-11-08T03:56:50.560Z,29.23
2022-11-08T03:59:17.581Z,32.38
2022-11-08T04:01:47.727Z,31.85
2022-11-08T04:04:14.669Z,28.65
2022-11-08T04:06:41.566Z,31.83
2022-11-08T04:09:08.420Z,30.60
2022-11-08T04:11:56.616Z,32.00
2022-11-08T04:14:42.092Z,27.02
2022-11-08T04:17:09.187Z,25.70
2022-11-08T04:19:54.561Z,28.35
2022-11-08T04:22:42.405Z,24.55
2022-11-08T04:25:09.335Z,25.08
2022-11-08T04:27:36.179Z,26.90
2022-11-08T04:30:03.361Z,29.35
2022-11-08T04:32:31.530Z,28.95
2022-11-08T04:34:58.354Z,26.60
2022-11-08T04:37:25.194Z,28.08
2022-11-08T04:39:52.115Z,29.30
2022-11-08T04:42:43.254Z,28.95
2022-11-08T04:45:11.006Z,25.38
2022-11-08T04:47:42.069Z,26.70
2022-11-08T04:50:11.290Z,26.05
2022-11-08T04:52:38.117Z,26.05
2022-11-08T04:55:05.341Z,27.10
2022-11-08T04:57:32.622Z,27.90
2022-11-08T04:59:59.521Z,26.42
2022-11-08T05:02:27.638Z,27.67
2022-11-08T05:04:54.708Z,26.75
2022-11-08T05:07:21.606Z,29.20
2022-11-08T05:09:48.561Z,24.88
2022-11-08T05:12:17.611Z,25.20
2022-11-08T05:14:44.458Z,26.95
2022-11-08T05:17:11.269Z,27.20
2022-11-08T05:19:56.909Z,26.80
2022-11-08T05:22:43.289Z,25.40
2022-11-08T05:25:10.288Z,25.27
2022-11-08T05:27:37.509Z,24.40
2022-11-08T05:30:04.946Z,25.38
2022-11-08T05:33:13.731Z,24.75
2022-11-08T05:35:40.697Z,21.58
2022-11-08T05:38:08.103Z,22.45
2022-11-08T05:40:39.615Z,25.27
2022-11-08T05:43:06.548Z,23.00
2022-11-08T05:45:33.381Z,24.20
2022-11-08T05:48:03.845Z,23.65
2022-11-08T05:53:18.370Z,16.42
2022-11-08T05:55:45.477Z,18.80
2022-11-08T05:58:12.391Z,21.85
2022-11-08T06:00:39.439Z,22.88
2022-11-08T06:03:10.639Z,21.85
2022-11-08T06:05:37.699Z,21.63
2022-11-08T06:08:04.884Z,23.75
2022-11-08T06:10:33.857Z,22.02
2022-11-08T06:13:01.191Z,21.00
2022-11-08T06:15:28.167Z,22.80
2022-11-08T06:17:55.176Z,22.92
2022-11-08T06:21:00.860Z,22.25
2022-11-08T06:23:28.768Z,17.80
2022-11-08T06:25:55.739Z,20.13
2022-11-08T06:28:23.039Z,20.33
2022-11-08T06:31:11.093Z,20.40
2022-11-08T06:33:38.187Z,18.85
2022-11-08T06:36:06.996Z,20.65
2022-11-08T06:38:33.992Z,21.30
2022-11-08T06:41:02.764Z,20.55
2022-11-08T06:43:30.101Z,22.25
2022-11-08T06:46:01.566Z,17.92
2022-11-08T06:48:34.061Z,19.60
2022-11-08T06:51:04.573Z,18.65
2022-11-08T06:53:31.795Z,19.73
2022-11-08T06:56:02.942Z,20.05
2022-11-08T06:58:30.654Z,19.10
2022-11-08T07:01:02.426Z,19.30
2022-11-08T07:03:29.520Z,19.35
2022-11-08T07:05:56.577Z,21.02
2022-11-08T07:08:26.604Z,18.75
2022-11-08T07:10:55.708Z,20.75
2022-11-08T07:13:22.749Z,21.30
2022-11-08T07:15:49.793Z,20.73
2022-11-08T07:18:18.870Z,19.40
2022-11-08T07:21:12.536Z,21.15
2022-11-08T07:23:39.541Z,18.05
2022-11-08T07:26:08.893Z,21.30
2022-11-08T07:28:36.195Z,18.70
2022-11-08T07:31:33.427Z,18.77
2022-11-08T07:34:00.390Z,17.80
2022-11-08T07:36:27.659Z,18.95
2022-11-08T07:38:54.855Z,21.02
2022-11-08T07:41:40.968Z,20.67
2022-11-08T07:44:08.143Z,19.73
2022-11-08T07:46:35.275Z,20.52
2022-11-08T07:49:02.394Z,20.15
2022-11-08T07:55:41.792Z,15.70
2022-11-08T07:58:10.928Z,20.20
2022-11-08T08:01:07.597Z,20.42
2022-11-08T08:07:56.566Z,17.27
2022-11-08T08:10:23.784Z,20.38
2022-11-08T08:12:51.112Z,24.88
2022-11-08T08:15:18.050Z,30.60
2022-11-08T08:17:45.191Z,30.88
2022-11-08T08:20:12.829Z,33.90
2022-11-08T08:22:50.167Z,32.75
2022-11-08T08:25:18.177Z,24.13
2022-11-08T08:27:52.713Z,23.45
2022-11-08T08:30:24.387Z,24.15
2022-11-08T08:33:08.341Z,24.58
2022-11-08T08:35:40.297Z,20.75
2022-11-08T08:38:12.863Z,24.45
2022-11-08T08:40:41.092Z,25.35
2022-11-08T08:43:08.075Z,27.65
2022-11-08T08:45:36.104Z,29.70
2022-11-08T08:48:04.005Z,31.35
2022-11-08T08:51:09.600Z,28.38
2022-11-08T08:53:37.390Z,20.90
2022-11-08T08:56:05.748Z,27.00
2022-11-08T08:58:33.103Z,25.67
2022-11-08T09:03:51.787Z,23.75
2022-11-08T09:06:18.741Z,24.15
2022-11-08T09:08:46.012Z,24.33
2022-11-08T09:11:13.994Z,22.95
2022-11-08T09:13:41.187Z,23.55
2022-11-08T09:16:10.208Z,23.35
2022-11-08T09:18:39.432Z,24.95
2022-11-08T09:21:07.960Z,26.75
2022-11-08T09:23:35.033Z,25.63
2022-11-08T09:26:05.091Z,24.52
2022-11-08T09:28:34.513Z,26.38
2022-11-08T09:31:09.308Z,24.52
2022-11-08T09:33:37.412Z,24.95
2022-11-08T09:36:05.606Z,29.13
2022-11-08T09:38:32.832Z,26.00
2022-11-08T09:41:10.262Z,27.30
2022-11-08T09:44:09.624Z,26.13
2022-11-08T09:47:02.426Z,21.58
2022-11-08T09:49:41.438Z,25.50
2022-11-08T09:52:16.352Z,26.90
2022-11-08T09:54:45.231Z,27.17
2022-11-08T09:57:54.622Z,26.52
2022-11-08T10:00:21.875Z,20.00
2022-11-08T10:02:49.163Z,24.60
2022-11-08T10:05:19.542Z,26.88
2022-11-08T10:08:20.003Z,28.20
2022-11-08T10:13:47.555Z,14.68
2022-11-08T10:16:50.161Z,18.42
2022-11-08T10:19:29.128Z,18.63
2022-11-08T10:22:00.436Z,22.88
2022-11-08T10:24:35.460Z,23.33
2022-11-08T10:27:10.241Z,24.55
2022-11-08T10:29:41.950Z,26.52
2022-11-08T10:32:14.679Z,25.55
2022-11-08T10:35:08.219Z,26.40
2022-11-08T10:37:35.211Z,22.02
2022-11-08T10:40:33.053Z,25.90
2022-11-08T10:43:09.539Z,25.10
2022-11-08T10:45:37.770Z,24.00
2022-11-08T10:48:05.667Z,34.95
2022-11-08T10:50:52.509Z,28.80
2022-11-08T10:53:30.215Z,27.48
2022-11-08T10:56:02.906Z,29.00
2022-11-08T10:58:33.035Z,32.45
2022-11-08T11:01:22.815Z,34.80
2022-11-08T11:03:52.423Z,28.73
2022-11-08T11:06:32.547Z,30.02
2022-11-08T11:09:03.299Z,29.95
2022-11-08T11:14:23.841Z,16.75
2022-11-08T11:17:18.910Z,24.92
2022-11-08T11:19:54.862Z,24.88
2022-11-08T11:22:32.296Z,27.92
2022-11-08T11:25:13.831Z,27.92
2022-11-08T11:27:42.084Z,25.92
2022-11-08T11:30:33.521Z,29.90
2022-11-08T11:33:00.654Z,26.17
2022-11-08T11:35:52.011Z,30.17
2022-11-08T11:38:51.936Z,28.60
2022-11-08T11:41:53.133Z,27.43
2022-11-08T11:44:30.099Z,23.08
2022-11-08T11:47:00.097Z,29.30
2022-11-08T11:49:32.300Z,30.27
2022-11-08T11:52:01.368Z,33.35
2022-11-08T11:54:31.837Z,31.52
2022-11-08T11:57:12.201Z,32.35
2022-11-08T12:00:09.797Z,28.85
2022-11-08T12:02:45.738Z,28.48
2022-11-08T12:05:28.672Z,28.88
2022-11-08T12:08:04.552Z,29.02
2022-11-08T12:11:10.267Z,36.35
2022-11-08T12:13:54.456Z,30.95
2022-11-08T12:16:27.891Z,29.85
2022-11-08T12:19:11.217Z,30.90
2022-11-08T12:22:00.996Z,29.20
2022-11-08T12:24:46.632Z,31.42
2022-11-08T12:27:28.507Z,29.40
2022-11-08T12:30:16.370Z,29.45
2022-11-08T12:32:52.925Z,29.50
2022-11-08T12:35:24.857Z,31.20
2022-11-08T12:38:16.527Z,34.47
2022-11-08T12:40:49.232Z,31.15
2022-11-08T12:43:28.119Z,30.27
2022-11-08T12:46:18.961Z,32.45
2022-11-08T12:51:59.242Z,19.63
2022-11-08T12:54:41.354Z,23.90
2022-11-08T12:57:36.082Z,27.17
2022-11-08T13:00:15.997Z,28.23
2022-11-08T13:02:45.325Z,23.70
2022-11-08T13:05:29.600Z,30.55
2022-11-08T13:08:08.794Z,31.10
2022-11-08T13:10:56.258Z,32.03
2022-11-08T13:13:38.416Z,29.98
2022-11-08T13:16:10.744Z,29.08
2022-11-08T13:18:59.005Z,31.58
2022-11-08T13:21:30.380Z,28.60
2022-11-08T13:24:14.107Z,39.35
2022-11-08T13:27:41.025Z,35.05
2022-11-08T13:30:17.036Z,29.05
2022-11-08T13:32:44.033Z,28.10
2022-11-08T13:35:22.093Z,42.00
2022-11-08T13:38:19.854Z,34.10
2022-11-08T13:41:21.590Z,45.03
2022-11-08T13:43:50.128Z,41.42
2022-11-08T13:46:25.770Z,49.63
2022-11-08T13:49:20.354Z,44.83
2022-11-08T13:52:35.468Z,48.05
2022-11-08T13:55:02.563Z,43.78
2022-11-08T13:57:55.958Z,54.60
2022-11-08T14:01:05.353Z,46.28
2022-11-08T14:03:35.854Z,44.63
2022-11-08T14:06:05.984Z,48.00
2022-11-08T14:08:51.962Z,49.67
2022-11-08T14:15:50.288Z,36.75
2022-11-08T14:18:28.267Z,41.10
2022-11-08T14:20:56.265Z,47.40
2022-11-08T14:23:26.829Z,47.92
2022-11-08T14:25:56.963Z,45.20
2022-11-08T14:28:25.297Z,44.13
2022-11-08T14:31:32.348Z,42.78
2022-11-08T14:34:00.829Z,37.92
2022-11-08T14:36:30.262Z,40.90
2022-11-08T14:39:12.022Z,45.88
2022-11-08T14:41:59.368Z,43.63
2022-11-08T14:44:31.243Z,39.83
2022-11-08T14:46:59.179Z,38.13
2022-11-08T14:49:35.041Z,40.10
2022-11-08T14:55:11.997Z,32.92
2022-11-08T14:57:42.517Z,37.30
2022-11-08T15:07:46.771Z,25.60
2022-11-08T15:10:13.908Z,28.25
2022-11-08T15:12:46.543Z,30.95
2022-11-08T15:15:24.647Z,31.80
2022-11-08T15:18:48.679Z,30.33
2022-11-08T15:25:43.930Z,18.95
2022-11-08T15:28:16.749Z,29.95
2022-11-08T15:30:45.606Z,28.40
2022-11-08T15:33:29.467Z,33.97
2022-11-08T15:35:59.199Z,29.52
2022-11-08T15:38:52.580Z,27.05
2022-11-08T15:45:35.307Z,20.70
2022-11-08T15:48:11.490Z,23.02
2022-11-08T15:51:43.255Z,28.25
2022-11-08T15:54:12.748Z,23.30
2022-11-08T15:56:41.733Z,28.63
2022-11-08T16:03:36.301Z,19.50
2022-11-08T16:06:03.628Z,23.73
2022-11-08T16:08:31.769Z,26.92
2022-11-08T16:15:45.989Z,16.65
2022-11-08T16:18:13.155Z,19.65
2022-11-08T16:20:41.931Z,22.52
2022-11-08T16:23:11.092Z,25.25
2022-11-08T16:25:48.938Z,24.65
2022-11-08T16:28:36.368Z,23.20
2022-11-08T16:31:44.443Z,18.90
2022-11-08T16:34:37.771Z,18.83
2022-11-08T16:38:03.473Z,18.27
2022-11-08T16:40:32.702Z,18.27
2022-11-08T16:47:19.989Z,15.38
2022-11-08T16:49:51.420Z,20.83
2022-11-08T16:52:38.597Z,17.45
2022-11-08T16:55:06.061Z,19.38
2022-11-08T16:57:35.068Z,19.45
2022-11-08T17:00:03.903Z,20.10
2022-11-08T17:02:34.290Z,21.05
2022-11-08T17:05:02.021Z,20.00
2022-11-08T17:07:30.331Z,21.35
2022-11-08T17:09:58.624Z,20.98
2022-11-08T17:12:44.880Z,18.88
2022-11-08T17:15:14.433Z,17.38
2022-11-08T17:17:42.315Z,20.88
2022-11-08T17:20:12.590Z,17.95
2022-11-08T17:22:43.795Z,21.23
2022-11-08T17:25:13.736Z,18.70
2022-11-08T17:27:42.042Z,18.15
2022-11-08T17:30:11.182Z,17.95
2022-11-08T17:32:38.771Z,18.02
2022-11-08T17:35:08.121Z,19.30
2022-11-08T17:37:35.658Z,18.98
2022-11-08T17:40:06.319Z,21.20
2022-11-08T17:42:38.247Z,17.38
2022-11-08T17:45:08.079Z,19.48
2022-11-08T17:47:35.572Z,17.33
2022-11-08T17:50:02.528Z,19.48
2022-11-08T17:52:33.766Z,21.95
2022-11-08T17:55:00.858Z,21.27
2022-11-08T17:57:28.567Z,21.98
2022-11-08T17:59:57.126Z,21.40
2022-11-08T18:02:55.195Z,23.55
2022-11-08T18:05:22.277Z,17.95
2022-11-08T18:07:50.600Z,20.17
2022-11-08T18:10:57.489Z,21.20
2022-11-08T18:13:26.069Z,17.02
2022-11-08T18:15:53.649Z,23.42
2022-11-08T18:18:21.259Z,21.42
2022-11-08T18:21:26.166Z,21.58
2022-11-08T18:23:54.131Z,18.70
2022-11-08T18:26:21.600Z,21.63
2022-11-08T18:28:51.236Z,19.55
2022-11-08T18:35:08.488Z,16.45
2022-11-08T18:37:35.453Z,19.60
2022-11-08T18:40:02.561Z,23.10
2022-11-08T18:42:35.462Z,23.92
2022-11-08T18:45:02.557Z,23.42
2022-11-08T18:47:29.571Z,26.55
2022-11-08T18:50:01.216Z,26.40
2022-11-08T18:53:03.322Z,25.35
2022-11-08T18:55:34.563Z,22.38
2022-11-08T18:58:02.344Z,23.83
2022-11-08T19:04:20.525Z,18.35
2022-11-08T19:06:53.088Z,23.88
2022-11-08T19:09:21.583Z,27.15
2022-11-08T19:12:14.773Z,29.10
2022-11-08T19:18:29.220Z,21.85
2022-11-08T19:25:04.003Z,21.30
2022-11-08T19:27:33.057Z,28.48
2022-11-08T19:30:00.617Z,31.15
2022-11-08T19:32:53.682Z,33.22
2022-11-08T19:35:45.882Z,28.48
2022-11-08T19:38:12.863Z,35.83
2022-11-08T19:41:19.872Z,34.45
2022-11-08T19:43:47.494Z,31.40
2022-11-08T19:46:18.130Z,36.30
2022-11-08T19:48:46.852Z,33.53
2022-11-08T19:51:40.405Z,31.02
2022-11-08T19:54:31.629Z,33.58
2022-11-08T19:57:06.565Z,40.28
2022-11-08T19:59:33.733Z,48.25
2022-11-08T20:02:00.821Z,52.75
2022-11-08T20:04:27.864Z,62.72
2022-11-08T20:06:55.111Z,64.47
2022-11-08T20:09:27.352Z,72.05
2022-11-08T20:11:57.325Z,72.00
2022-11-08T20:14:24.606Z,80.45
2022-11-08T20:16:53.640Z,72.47
2022-11-08T20:19:21.017Z,84.20
2022-11-08T20:21:50.302Z,78.88
2022-11-08T20:24:18.854Z,72.82
2022-11-08T20:26:45.829Z,71.72
2022-11-08T20:29:16.248Z,80.72
2022-11-08T20:32:12.191Z,88.32
2022-11-08T20:34:42.179Z,94.78
2022-11-08T20:37:11.074Z,87.72
2022-11-08T20:39:43.423Z,79.15
2022-11-08T20:42:11.578Z,90.15
2022-11-08T20:44:42.190Z,76.57
2022-11-08T20:47:09.515Z,81.28
2022-11-08T20:49:36.675Z,87.15
2022-11-08T20:52:05.657Z,82.70
2022-11-08T20:54:32.508Z,79.53
2022-11-08T20:56:59.430Z,79.95
2022-11-08T20:59:26.322Z,74.20
2022-11-08T21:01:54.981Z,82.68
2022-11-08T21:04:22.960Z,81.13
2022-11-08T21:07:00.601Z,75.50
2022-11-08T21:09:49.067Z,67.72
2022-11-08T21:12:18.274Z,64.45
2022-11-08T21:14:45.157Z,80.07
2022-11-08T21:17:27.420Z,70.10
2022-11-08T21:19:54.585Z,73.22
2022-11-08T21:22:23.188Z,70.93
2022-11-08T21:24:50.087Z,77.72
2022-11-08T21:27:17.560Z,71.43
2022-11-08T21:29:44.600Z,74.03
2022-11-08T21:32:12.610Z,69.28
2022-11-08T21:34:45.476Z,73.50
2022-11-08T21:37:13.130Z,68.55
2022-11-08T21:39:43.104Z,65.57
2022-11-08T21:42:11.264Z,67.00
2022-11-08T21:44:38.563Z,66.90
2022-11-08T21:47:05.502Z,66.97
2022-11-08T21:49:32.493Z,63.17
2022-11-08T21:51:59.714Z,64.10
2022-11-08T21:54:26.700Z,66.28
2022-11-08T21:56:53.632Z,66.60
2022-11-08T21:59:20.606Z,61.78
2022-11-08T22:01:47.674Z,64.47
2022-11-08T22:04:15.191Z,67.40
2022-11-08T22:06:47.605Z,59.40
2022-11-08T22:09:14.972Z,70.38
2022-11-08T22:11:41.995Z,63.05
2022-11-08T22:14:09.172Z,60.25
2022-11-08T22:16:38.116Z,64.65
2022-11-08T22:19:06.141Z,60.55
2022-11-08T22:21:38.299Z,64.43
2022-11-08T22:24:05.344Z,62.78
2022-11-08T22:26:32.633Z,59.20
2022-11-08T22:28:59.736Z,58.00
2022-11-08T22:31:27.734Z,63.78
2022-11-08T22:33:54.817Z,66.68
2022-11-08T22:36:24.592Z,67.43
2022-11-08T22:38:55.238Z,58.78
2022-11-08T22:41:24.677Z,57.97
2022-11-08T22:43:51.770Z,60.03
2022-11-08T22:46:19.087Z,58.97
2022-11-08T22:48:49.536Z,61.30
2022-11-08T22:51:16.867Z,56.83
2022-11-08T22:53:43.942Z,60.92
2022-11-08T22:56:11.962Z,55.92
2022-11-08T22:58:39.683Z,54.97
2022-11-08T23:01:11.145Z,56.67
2022-11-08T23:03:44.431Z,59.30
2022-11-08T23:06:11.452Z,53.25
2022-11-08T23:08:38.877Z,59.38
2022-11-08T23:11:27.619Z,58.65
2022-11-08T23:14:13.891Z,56.35
2022-11-08T23:16:43.963Z,60.42
2022-11-08T23:19:35.357Z,56.05
2022-11-08T23:22:25.776Z,52.80
2022-11-08T23:24:55.092Z,57.03
2022-11-08T23:27:43.004Z,55.63
2022-11-08T23:30:32.842Z,53.42
2022-11-08T23:33:00.014Z,55.83
2022-11-08T23:35:27.249Z,54.30
2022-11-08T23:37:54.685Z,61.83
2022-11-08T23:40:40.154Z,61.38
2022-11-08T23:43:30.539Z,45.95
2022-11-08T23:45:58.867Z,50.03
2022-11-08T23:48:27.272Z,44.70
2022-11-08T23:50:55.798Z,51.75
2022-11-08T23:53:25.227Z,53.00
2022-11-08T23:55:56.188Z,52.00
2022-11-08T23:58:24.023Z,48.92
